CheckWX is a tool to help pilots better visualize weather data.  It is not intended as a substitute for an official pre-flight weather briefing.

16:04:10 UTC

KHLG TAF
Wheeling Ohio Co Airport
Wheeling, West Virginia, USA
KHLG 291722Z 2918/3018 21013G23KT P6SM BKN040 FM292000 22012KT P6SM SHRA VCTS BKN040CB TEMPO 2920/2922 27020G35KT 2SM TSRA OVC030CB FM300100 31006KT P6SM VCSH BKN025 FM300400 30004KT P6SM BKN060 FM300900 00000KT 5SM BR SCT080 FM301200 VRB04KT P6SM SCT060

May-29@
18:00 UTC

May-29 @ 18:00 UTC

May-29@
20:00 UTC

May-29 @ 20:00 UTC

TAF KHLG 291722Z 2918/3018 21013G23KT P6SM BKN040

Expired

Wind
  • 210° at 13 KTS
  • {Gusting to 23 KTS
Cloud Levels
  • Broken at 4,000' AGL

May-29@
20:00 UTC

May-29 @ 20:00 UTC

May-29@
22:00 UTC

May-29 @ 22:00 UTC

TEMPO 2920/2922 27020G35KT 2SM TSRA OVC030CB

Expired

Wind
  • 270° at 20 KTS
  • {Gusting to 35 KTS
Conditions
Thunderstorm, Rain
Cloud Levels
  • Overcast at 3,000' AGL

May-29@
20:00 UTC

May-29 @ 20:00 UTC

May-30@
01:00 UTC

May-30 @ 01:00 UTC

FM292000 22012KT P6SM SHRA VCTS BKN040CB

Expired

Wind
  • 220° at 12 KTS
Conditions
Showers, Rain, Area Thunderstorm
Cloud Levels
  • Broken at 4,000' AGL

May-30@
01:00 UTC

May-30 @ 01:00 UTC

May-30@
04:00 UTC

May-30 @ 04:00 UTC

FM300100 31006KT P6SM VCSH BKN025

Expired

Wind
  • 310° at 6 KTS
Conditions
Area Showers
Cloud Levels
  • Broken at 2,500' AGL

May-30@
04:00 UTC

May-30 @ 04:00 UTC

May-30@
09:00 UTC

May-30 @ 09:00 UTC

FM300400 30004KT P6SM BKN060

Expired

Wind
  • 300° at 4 KTS
Cloud Levels
  • Broken at 6,000' AGL

May-30@
09:00 UTC

May-30 @ 09:00 UTC

May-30@
12:00 UTC

May-30 @ 12:00 UTC

FM300900 00000KT 5SM BR SCT080

Expired

Conditions
Mist
Cloud Levels
  • Scattered at 8,000' AGL

May-30@
12:00 UTC

May-30 @ 12:00 UTC

May-30@
18:00 UTC

May-30 @ 18:00 UTC

FM301200 VRB04KT P6SM SCT060

From

From Standard forecast or significant change

Wind
  • Variable at 4 KTS
Cloud Levels
  • Scattered at 6,000' AGL